Time;durP1;ratioP1;P1;durP2;ratioP2;P2;SDS_P1;SDS_P2;PMS_P1;PMS_P2;Temp;Humidity;BMP_temperature;BMP_pressure;BME280_temperature;BME280_humidity;BME280_pressure;Samples;Min_cycle;Max_cycle;Signal;HPM_P1;HPM_P2
2022/06/11 00:01:48;;;;;;;11.43;7.38;;;;;;;22.66;55.56;102161.41;5079094;28;20051;-56
2022/06/11 00:04:21;;;;;;;12.40;6.85;;;;;;;22.67;55.71;102167.66;5073098;28;20067;-57
2022/06/11 00:06:55;;;;;;;10.98;6.95;;;;;;;22.65;55.55;102153.47;5081605;28;20040;-56
2022/06/11 00:09:23;;;;;;;10.63;6.07;;;;;;;22.65;55.52;102159.72;5077642;28;20058;-56
2022/06/11 00:11:53;;;;;;;10.73;6.85;;;;;;;22.64;55.69;102157.19;5077674;28;20036;-57
2022/06/11 00:14:24;;;;;;;12.57;6.72;;;;;;;22.64;55.90;102160.72;5077042;28;20118;-57
2022/06/11 00:16:51;;;;;;;11.80;7.25;;;;;;;22.63;55.78;102159.03;5080690;28;20051;-57
2022/06/11 00:19:22;;;;;;;12.13;7.20;;;;;;;22.62;55.86;102157.31;5073660;28;20044;-58
2022/06/11 00:21:51;;;;;;;12.65;6.93;;;;;;;22.62;55.82;102154.59;5077405;28;20050;-58
2022/06/11 00:24:19;;;;;;;11.38;7.18;;;;;;;22.60;55.88;102151.22;5079031;28;20381;-57
2022/06/11 00:26:47;;;;;;;10.60;6.75;;;;;;;22.60;55.92;102155.78;5078482;28;20046;-56
2022/06/11 00:29:15;;;;;;;10.70;6.20;;;;;;;22.60;56.05;102151.22;5076699;28;20123;-57
2022/06/11 00:31:42;;;;;;;10.68;6.18;;;;;;;22.60;56.08;102150.38;5075514;28;20056;-57
2022/06/11 00:34:09;;;;;;;11.95;6.78;;;;;;;22.57;55.93;102148.81;5077963;28;20328;-57
2022/06/11 00:36:36;;;;;;;9.70;5.82;;;;;;;22.55;56.14;102147.25;5077497;28;20449;-56
2022/06/11 00:39:06;;;;;;;10.35;6.43;;;;;;;22.54;56.00;102141.00;5078380;28;20046;-56
2022/06/11 00:41:36;;;;;;;11.35;6.43;;;;;;;22.54;55.97;102153.66;5078911;28;20040;-55
2022/06/11 00:44:03;;;;;;;10.13;5.90;;;;;;;22.53;56.20;102139.31;5077889;28;20438;-56
2022/06/11 00:46:50;;;;;;;10.45;6.43;;;;;;;22.51;56.16;102141.31;5079509;28;20052;-56
2022/06/11 00:49:40;;;;;;;10.30;5.95;;;;;;;22.51;56.05;102145.84;5076223;28;20040;-56
2022/06/11 00:52:20;;;;;;;10.35;5.53;;;;;;;22.50;56.12;102138.75;5077858;28;20045;-56
2022/06/11 00:54:54;;;;;;;10.15;5.82;;;;;;;22.49;56.27;102137.06;5076639;28;20048;-55
2022/06/11 00:57:21;;;;;;;9.10;6.10;;;;;;;22.48;56.17;102138.94;5078504;28;20050;-56
2022/06/11 00:59:53;;;;;;;8.93;6.00;;;;;;;22.47;56.23;102137.19;5078048;28;20054;-56
2022/06/11 01:02:20;;;;;;;9.43;5.68;;;;;;;22.46;56.27;102138.22;5081055;28;20285;-56
2022/06/11 01:04:49;;;;;;;10.68;6.00;;;;;;;22.46;56.09;102145.47;5077148;28;20048;-56
2022/06/11 01:07:53;;;;;;;10.77;6.35;;;;;;;22.44;56.07;102139.38;5077722;28;20044;-55
2022/06/11 01:10:47;;;;;;;8.57;5.18;;;;;;;22.42;56.37;102137.66;5075430;28;20040;-57
2022/06/11 01:13:30;;;;;;;8.43;5.30;;;;;;;22.42;56.23;102136.81;5077206;28;20048;-56
2022/06/11 01:16:02;;;;;;;9.30;5.90;;;;;;;22.44;56.05;102144.78;5075869;28;20808;-56
2022/06/11 01:18:56;;;;;;;8.02;5.25;;;;;;;22.40;56.06;102138.84;5075507;28;20131;-55
2022/06/11 01:21:35;;;;;;;10.15;5.75;;;;;;;22.38;56.30;102133.56;5076025;28;20036;-56
2022/06/11 01:24:20;;;;;;;10.18;6.05;;;;;;;22.39;56.18;102137.09;5076710;28;20434;-56
2022/06/11 01:27:20;;;;;;;7.82;5.00;;;;;;;22.37;56.41;102145.38;5071494;28;20048;-56
2022/06/11 01:30:25;;;;;;;7.45;5.05;;;;;;;22.36;56.13;102132.03;5076097;28;20055;-55
2022/06/11 01:33:07;;;;;;;8.85;5.30;;;;;;;22.35;56.25;102142.00;5079243;28;20136;-56
2022/06/11 01:36:00;;;;;;;8.73;5.35;;;;;;;22.35;56.42;102147.41;5076503;28;20048;-57
2022/06/11 01:38:37;;;;;;;8.35;5.13;;;;;;;22.34;56.39;102142.13;5074656;28;20139;-57
2022/06/11 01:41:38;;;;;;;7.88;4.65;;;;;;;22.32;56.78;102130.63;5084323;28;20048;-56
2022/06/11 01:44:18;;;;;;;8.18;4.90;;;;;;;22.32;56.86;102138.75;5083151;28;20058;-56
2022/06/11 01:46:47;;;;;;;8.52;4.63;;;;;;;22.32;56.83;102146.84;5078621;28;20051;-56
2022/06/11 01:49:20;;;;;;;6.68;4.30;;;;;;;22.32;56.67;102138.75;5079018;28;20050;-56
2022/06/11 01:52:17;;;;;;;9.07;5.05;;;;;;;22.30;56.82;102138.03;5080627;28;20446;-56
2022/06/11 01:55:05;;;;;;;7.95;4.90;;;;;;;22.30;56.82;102136.16;5082978;28;20048;-56
2022/06/11 01:57:54;;;;;;;8.40;5.05;;;;;;;22.26;56.90;102131.22;5078796;28;20040;-56
2022/06/11 02:00:21;;;;;;;7.20;4.55;;;;;;;22.29;56.66;102136.31;5081342;28;20049;-57
2022/06/11 02:03:06;;;;;;;7.90;4.47;;;;;;;22.27;56.95;102139.19;5078586;28;20194;-56
2022/06/11 02:05:38;;;;;;;8.75;4.53;;;;;;;22.27;56.75;102135.63;5078788;28;20370;-56
2022/06/11 02:08:38;;;;;;;5.57;3.55;;;;;;;22.26;56.67;102137.47;5079231;28;20412;-56
2022/06/11 02:11:18;;;;;;;7.68;4.82;;;;;;;22.26;56.64;102144.72;5077636;28;20052;-56
2022/06/11 02:13:56;;;;;;;7.18;4.63;;;;;;;22.25;56.72;102148.44;5081175;28;20054;-56
2022/06/11 02:16:38;;;;;;;6.70;4.38;;;;;;;22.24;56.71;102150.28;5080797;28;20322;-55
2022/06/11 02:19:10;;;;;;;6.95;4.45;;;;;;;22.24;56.73;102149.44;5080621;28;20060;-56
2022/06/11 02:21:43;;;;;;;6.28;4.10;;;;;;;22.25;56.81;102157.38;5078168;28;20538;-55
2022/06/11 02:24:18;;;;;;;6.55;4.03;;;;;;;22.24;56.71;102149.44;5079846;28;20065;-56
2022/06/11 02:26:52;;;;;;;6.68;4.05;;;;;;;22.23;56.73;102150.41;5082167;28;20051;-56
2022/06/11 02:29:22;;;;;;;5.82;3.72;;;;;;;22.23;56.56;102155.81;5086347;28;20052;-56
2022/06/11 02:32:05;;;;;;;6.47;4.32;;;;;;;22.21;56.60;102153.28;5080045;28;20054;-55
2022/06/11 02:34:32;;;;;;;6.53;3.75;;;;;;;22.20;56.97;102153.44;5080093;28;20415;-56
2022/06/11 02:37:09;;;;;;;6.97;3.75;;;;;;;22.20;56.73;102159.69;5077736;28;20044;-56
2022/06/11 02:39:41;;;;;;;6.57;4.00;;;;;;;22.19;56.91;102152.56;5080918;28;20431;-55
2022/06/11 02:42:11;;;;;;;5.97;3.50;;;;;;;22.17;57.00;102150.03;5079861;28;20058;-56
2022/06/11 02:44:40;;;;;;;7.18;3.92;;;;;;;22.20;56.86;102162.41;5081456;28;20064;-56
2022/06/11 02:47:06;;;;;;;6.22;3.95;;;;;;;22.17;56.75;102159.97;5078845;28;20035;-56
2022/06/11 02:49:35;;;;;;;6.15;3.85;;;;;;;22.18;56.76;102170.63;5078656;28;20062;-56
2022/06/11 02:52:06;;;;;;;6.05;3.95;;;;;;;22.16;57.12;102166.38;5078658;28;20048;-56
2022/06/11 02:54:33;;;;;;;6.90;3.60;;;;;;;22.15;56.83;102164.66;5077729;28;20048;-56
2022/06/11 02:57:01;;;;;;;5.68;3.40;;;;;;;22.16;56.95;102169.09;5079630;28;20041;-56
2022/06/11 02:59:28;;;;;;;4.78;3.53;;;;;;;22.13;57.04;102183.72;5078643;28;20155;-57
2022/06/11 03:01:56;;;;;;;5.70;3.90;;;;;;;22.14;56.81;102171.06;5078476;28;20037;-56
2022/06/11 03:04:24;;;;;;;6.30;3.42;;;;;;;22.13;57.04;102178.31;5080019;28;20048;-56
2022/06/11 03:06:51;;;;;;;5.03;3.35;;;;;;;22.13;56.86;102183.72;5079154;28;20441;-56
2022/06/11 03:09:23;;;;;;;6.70;3.78;;;;;;;22.13;57.08;102183.72;5078140;28;20091;-56
2022/06/11 03:11:50;;;;;;;5.72;3.58;;;;;;;22.12;56.87;102184.69;5079010;28;20055;-56
2022/06/11 03:14:16;;;;;;;6.57;2.83;;;;;;;22.12;56.96;102190.09;5078862;28;20399;-56
2022/06/11 03:16:44;;;;;;;8.18;4.10;;;;;;;22.11;56.80;102185.72;5077258;28;20040;-55
2022/06/11 03:19:12;;;;;;;6.32;3.40;;;;;;;22.11;56.63;102195.63;5073949;28;20319;-56
2022/06/11 03:21:40;;;;;;;5.90;3.90;;;;;;;22.10;57.01;102196.63;5078773;28;20044;-56
2022/06/11 03:24:07;;;;;;;5.85;3.22;;;;;;;22.09;56.70;102190.38;5080440;28;20047;-56
2022/06/11 03:26:34;;;;;;;6.60;3.05;;;;;;;22.10;57.10;102193.94;5079194;28;20054;-55
2022/06/11 03:29:02;;;;;;;6.30;3.30;;;;;;;22.09;56.74;102195.78;5074336;28;20237;-55
2022/06/11 03:31:29;;;;;;;6.63;3.33;;;;;;;22.09;56.88;102203.91;5079223;28;20331;-56
2022/06/11 03:33:55;;;;;;;5.13;3.00;;;;;;;22.08;57.00;102201.34;5079938;28;20063;-56
2022/06/11 03:36:22;;;;;;;5.13;3.20;;;;;;;22.07;56.44;102205.91;5075001;28;20066;-56
2022/06/11 03:38:49;;;;;;;7.53;3.08;;;;;;;22.07;57.00;102196.94;5080008;28;20048;-56
2022/06/11 03:41:17;;;;;;;6.32;2.97;;;;;;;22.07;56.83;102203.22;5077415;28;20039;-55
2022/06/11 03:43:43;;;;;;;5.68;3.40;;;;;;;22.06;57.15;102201.47;5079676;28;20044;-56
2022/06/11 03:46:10;;;;;;;4.32;2.67;;;;;;;22.06;57.02;102208.72;5078015;28;20420;-56
2022/06/11 03:48:37;;;;;;;4.88;3.00;;;;;;;22.05;56.88;102216.00;5077454;28;20052;-55
2022/06/11 03:51:06;;;;;;;4.88;2.67;;;;;;;22.04;57.04;102219.69;5078981;28;20383;-56
2022/06/11 03:53:33;;;;;;;5.03;3.00;;;;;;;22.04;56.97;102219.69;5079420;28;20132;-55
2022/06/11 03:56:00;;;;;;;5.18;3.00;;;;;;;22.04;57.16;102224.25;5077818;28;20050;-55
2022/06/11 03:58:27;;;;;;;5.35;3.08;;;;;;;22.03;57.00;102222.53;5083985;28;20327;-56
2022/06/11 04:03:40;;;;;;;5.90;3.15;;;;;;;22.02;56.82;102229.78;5080148;28;20135;-56
2022/06/11 04:06:08;;;;;;;6.20;3.45;;;;;;;22.02;56.83;102234.31;5077714;28;20311;-55
2022/06/11 04:08:35;;;;;;;6.43;2.90;;;;;;;22.03;56.84;102236.91;5077535;28;20056;-56
2022/06/11 04:11:03;;;;;;;4.45;2.63;;;;;;;22.01;56.95;102236.19;5075206;28;20062;-56
2022/06/11 04:13:31;;;;;;;6.63;3.20;;;;;;;22.02;56.87;102237.88;5076691;28;20052;-55
2022/06/11 04:15:59;;;;;;;4.82;2.92;;;;;;;22.02;57.09;102245.97;5078755;28;20060;-56
2022/06/11 04:18:33;;;;;;;4.90;2.60;;;;;;;22.00;57.01;102250.69;5076675;28;20048;-56
2022/06/11 04:21:00;;;;;;;;;;;;;;;21.99;56.89;102243.59;5077044;28;20063;-55
2022/06/11 04:23:29;;;;;;;5.20;2.67;;;;;;;22.02;56.81;102248.66;5074939;28;19928;-56
2022/06/11 04:25:58;;;;;;;5.20;2.60;;;;;;;22.01;57.14;102246.97;5078137;28;20131;-56
2022/06/11 04:28:28;;;;;;;3.88;2.35;;;;;;;22.01;56.92;102248.84;5079269;28;20050;-56
2022/06/11 04:30:57;;;;;;;6.90;3.03;;;;;;;22.02;56.68;102250.53;5075825;28;20462;-56
2022/06/11 04:33:23;;;;;;;5.18;2.58;;;;;;;22.00;56.82;102247.97;5075101;28;20059;-56
2022/06/11 04:35:50;;;;;;;4.32;2.40;;;;;;;22.01;56.83;102252.38;5076179;28;20371;-56
2022/06/11 04:38:18;;;;;;;4.32;2.38;;;;;;;22.00;56.78;102256.09;5078367;28;20036;-56
2022/06/11 04:40:45;;;;;;;4.07;2.50;;;;;;;22.00;56.90;102260.63;5077952;28;20044;-56
2022/06/11 04:43:11;;;;;;;5.65;2.78;;;;;;;22.02;57.00;102256.78;5079508;28;20056;-56
2022/06/11 04:45:38;;;;;;;4.18;2.60;;;;;;;22.02;56.76;102261.31;5078834;28;20047;-56
2022/06/11 04:48:05;;;;;;;5.20;2.60;;;;;;;22.02;56.92;102264.88;5078292;28;20051;-56
2022/06/11 04:50:32;;;;;;;4.32;2.40;;;;;;;22.03;56.97;102266.59;5072440;28;20036;-56
2022/06/11 04:52:59;;;;;;;6.55;2.60;;;;;;;22.04;56.84;102272.84;5076156;28;20047;-55
2022/06/11 04:55:26;;;;;;;5.22;2.38;;;;;;;22.04;57.04;102271.00;5075097;28;20046;-56
2022/06/11 04:57:53;;;;;;;7.05;2.92;;;;;;;22.07;56.59;102280.63;5076564;28;20049;-56
2022/06/11 05:00:23;;;;;;;6.85;2.70;;;;;;;22.08;56.82;102277.81;5079304;28;20063;-56
2022/06/11 05:02:50;;;;;;;3.47;2.22;;;;;;;22.10;56.49;102280.34;5075781;28;20041;-56
2022/06/11 05:05:17;;;;;;;7.85;2.50;;;;;;;22.13;56.50;102283.66;5076160;28;20044;-56
2022/06/11 05:07:44;;;;;;;5.15;2.08;;;;;;;22.15;56.62;102276.25;5076429;28;20044;-57
2022/06/11 05:10:14;;;;;;;4.97;2.72;;;;;;;22.16;56.24;102280.66;5075890;28;20083;-57
2022/06/11 05:12:40;;;;;;;3.40;2.25;;;;;;;22.18;56.22;102281.34;5076851;28;20048;-57
2022/06/11 05:15:08;;;;;;;4.60;2.20;;;;;;;22.22;56.16;102270.25;5077931;28;20518;-57
2022/06/11 05:17:35;;;;;;;5.28;2.20;;;;;;;22.24;56.18;102273.69;5073833;28;20127;-57
2022/06/11 05:20:03;;;;;;;5.22;2.40;;;;;;;22.25;56.22;102268.13;5075014;28;20049;-57
2022/06/11 05:22:29;;;;;;;5.88;2.20;;;;;;;22.26;55.85;102277.91;5073214;28;20419;-57
2022/06/11 05:24:56;;;;;;;6.20;2.70;;;;;;;22.26;55.91;102274.38;5080453;28;20133;-57
2022/06/11 05:27:25;;;;;;;5.93;2.45;;;;;;;22.25;56.05;102281.63;5072564;28;20054;-57
2022/06/11 05:30:13;;;;;;;6.43;2.05;;;;;;;22.25;55.78;102287.03;5077730;28;20055;-56
2022/06/11 05:32:41;;;;;;;5.05;2.20;;;;;;;22.24;56.05;102279.94;5076918;28;20335;-56
2022/06/11 05:35:11;;;;;;;5.13;2.60;;;;;;;22.23;55.96;102289.03;5075482;28;20056;-57
2022/06/11 05:37:38;;;;;;;6.07;1.70;;;;;;;22.23;56.21;102289.03;5079067;28;20559;-57
2022/06/11 05:40:07;;;;;;;4.53;1.95;;;;;;;22.22;55.88;102289.16;5078393;28;20058;-57
2022/06/11 05:42:34;;;;;;;4.63;1.88;;;;;;;22.21;56.23;102298.28;5076485;28;20036;-57
2022/06/11 05:45:00;;;;;;;6.10;2.10;;;;;;;22.21;55.90;102295.56;5076397;28;20067;-56
2022/06/11 05:47:27;;;;;;;4.03;2.00;;;;;;;22.20;56.01;102300.13;5075978;28;20047;-56
2022/06/11 05:49:58;;;;;;;5.78;2.03;;;;;;;22.21;56.25;102296.41;5077195;28;20136;-56
2022/06/11 05:52:29;;;;;;;6.88;2.45;;;;;;;22.20;56.07;102294.72;5075417;28;20040;-56
2022/06/11 05:54:56;;;;;;;5.85;2.30;;;;;;;22.21;56.28;102300.97;5069220;28;20049;-57
2022/06/11 05:57:27;;;;;;;6.03;2.25;;;;;;;22.20;56.25;102293.88;5076102;28;20052;-56
2022/06/11 06:00:02;;;;;;;5.00;2.42;;;;;;;22.20;56.00;102293.88;5075993;28;20482;-57
2022/06/11 06:02:30;;;;;;;4.65;2.00;;;;;;;22.21;56.34;102295.56;5079555;28;20127;-57
2022/06/11 06:04:57;;;;;;;4.88;2.10;;;;;;;22.22;55.96;102299.97;5077636;28;20040;-57
2022/06/11 06:07:23;;;;;;;4.30;2.33;;;;;;;22.21;55.92;102301.81;5077163;28;20428;-57
2022/06/11 06:09:50;;;;;;;6.28;2.20;;;;;;;22.22;55.99;102302.66;5071039;28;20693;-57
2022/06/11 06:12:17;;;;;;;7.97;2.50;;;;;;;22.22;55.90;102314.31;5073164;28;20036;-57
2022/06/11 06:14:44;;;;;;;5.10;2.03;;;;;;;22.21;56.14;102312.63;5078208;28;20143;-58
2022/06/11 06:17:10;;;;;;;5.20;2.00;;;;;;;22.22;56.09;102313.47;5074221;28;20052;-57
2022/06/11 06:19:57;;;;;;;5.20;2.40;;;;;;;22.22;56.28;102313.47;5073988;28;20053;-57
2022/06/11 06:22:24;;;;;;;3.97;2.05;;;;;;;22.22;56.13;102318.88;5074231;28;20045;-57
2022/06/11 06:24:50;;;;;;;4.35;2.17;;;;;;;22.22;56.04;102319.72;5077235;28;20392;-57
2022/06/11 06:27:17;;;;;;;6.50;2.47;;;;;;;22.21;56.10;102320.72;5075691;28;20040;-58
2022/06/11 06:29:43;;;;;;;13.90;2.95;;;;;;;22.22;56.24;102318.88;5076731;28;20051;-57
2022/06/11 06:32:10;;;;;;;7.32;2.38;;;;;;;22.22;56.12;102310.78;5078297;28;20070;-57
2022/06/11 06:34:36;;;;;;;7.13;2.22;;;;;;;22.22;55.99;102313.47;5079218;28;20432;-58
2022/06/11 06:37:03;;;;;;;6.47;2.00;;;;;;;22.22;56.36;102319.72;5080283;28;20834;-57
2022/06/11 06:39:31;;;;;;;5.20;1.90;;;;;;;22.23;55.95;102326.84;5078131;28;20047;-57
2022/06/11 06:41:58;;;;;;;6.25;2.20;;;;;;;22.23;56.31;102332.25;5076378;28;20087;-57
2022/06/11 06:44:25;;;;;;;8.25;2.10;;;;;;;22.24;55.75;102330.41;5082733;28;20044;-56
2022/06/11 06:46:51;;;;;;;4.97;1.80;;;;;;;22.23;56.01;102329.56;5079262;28;20408;-57
2022/06/11 06:49:18;;;;;;;7.43;2.38;;;;;;;22.24;55.83;102325.84;5079029;28;20063;-57
2022/06/11 06:51:45;;;;;;;5.38;2.40;;;;;;;22.24;56.12;102325.84;5077757;28;20048;-57
2022/06/11 06:54:11;;;;;;;5.03;2.00;;;;;;;22.25;56.11;102326.69;5075143;28;20062;-57
2022/06/11 06:56:38;;;;;;;9.55;2.13;;;;;;;22.23;56.13;102332.25;5076959;28;20455;-57
2022/06/11 06:59:05;;;;;;;8.25;2.03;;;;;;;22.25;56.11;102332.09;5076508;28;20063;-57
2022/06/11 07:01:32;;;;;;;6.72;2.50;;;;;;;22.25;55.94;102332.94;5076336;28;20051;-57
2022/06/11 07:03:59;;;;;;;6.82;2.17;;;;;;;22.26;55.74;102333.78;5076693;28;20115;-58
2022/06/11 07:06:46;;;;;;;9.10;2.55;;;;;;;22.27;55.77;102339.06;5075945;28;20056;-57
2022/06/11 07:09:12;;;;;;;8.13;2.28;;;;;;;22.27;56.03;102344.47;5079999;28;20052;-57
2022/06/11 07:11:39;;;;;;;8.27;2.40;;;;;;;22.28;55.84;102339.91;5074076;28;20043;-57
2022/06/11 07:14:05;;;;;;;4.45;1.90;;;;;;;22.28;56.09;102337.22;5079294;28;20044;-57
2022/06/11 07:16:36;;;;;;;7.78;2.42;;;;;;;22.29;55.68;102341.63;5076522;28;20082;-58
2022/06/11 07:19:09;;;;;;;6.75;2.25;;;;;;;22.30;55.66;102335.22;5076111;28;20062;-57
2022/06/11 07:21:41;;;;;;;6.05;2.42;;;;;;;22.30;55.75;102337.91;5077674;28;20052;-57
2022/06/11 07:24:14;;;;;;;5.70;2.15;;;;;;;22.31;55.66;102339.59;5077261;28;20040;-58
2022/06/11 07:26:44;;;;;;;6.03;2.58;;;;;;;22.30;55.99;102338.75;5074436;28;20045;-57
2022/06/11 07:29:20;;;;;;;7.90;2.20;;;;;;;22.31;55.43;102339.59;5076281;28;20048;-58
2022/06/11 07:31:49;;;;;;;7.70;2.33;;;;;;;22.31;55.50;102339.59;5076749;28;20142;-57
2022/06/11 07:34:16;;;;;;;6.13;2.08;;;;;;;22.32;55.82;102335.94;5077194;28;20153;-58
2022/06/11 07:36:43;;;;;;;7.07;2.28;;;;;;;22.32;55.41;102350.28;5076917;28;20592;-57
2022/06/11 07:39:09;;;;;;;10.02;2.13;;;;;;;22.33;55.44;102348.44;5078429;28;20044;-58
2022/06/11 07:41:36;;;;;;;7.57;2.30;;;;;;;22.32;55.43;102344.88;5072803;28;20425;-57
2022/06/11 07:44:05;;;;;;;8.70;2.47;;;;;;;22.33;55.64;102343.03;5072664;28;20090;-57
2022/06/11 07:46:32;;;;;;;7.25;1.73;;;;;;;22.34;55.86;102344.72;5077773;28;20101;-57
2022/06/11 07:48:58;;;;;;;7.57;2.17;;;;;;;22.34;55.26;102344.72;5072114;28;20066;-58
2022/06/11 07:51:25;;;;;;;6.32;2.38;;;;;;;22.35;55.22;102349.13;5076792;28;20044;-57
2022/06/11 07:53:52;;;;;;;9.07;2.63;;;;;;;22.34;55.45;102345.56;5073631;28;20442;-57
2022/06/11 07:56:19;;;;;;;4.32;2.10;;;;;;;22.35;55.66;102358.09;5076577;28;20045;-57
2022/06/11 07:58:49;;;;;;;5.25;2.08;;;;;;;22.36;55.50;102354.41;5073610;28;20049;-57
2022/06/11 08:01:16;;;;;;;5.10;1.90;;;;;;;22.37;55.29;102348.00;5074656;28;20041;-57
2022/06/11 08:03:42;;;;;;;4.05;2.20;;;;;;;22.37;55.21;102352.53;5074713;28;20336;-57
2022/06/11 08:06:09;;;;;;;7.07;2.17;;;;;;;22.38;55.31;102356.94;5074112;28;20038;-57
2022/06/11 08:08:36;;;;;;;5.50;2.13;;;;;;;22.38;55.38;102349.69;5071642;28;20047;-58
2022/06/11 08:11:05;;;;;;;5.70;2.13;;;;;;;22.40;54.97;102360.38;5076520;28;20131;-57
2022/06/11 08:13:32;;;;;;;6.38;2.53;;;;;;;22.39;54.92;102358.63;5074426;28;20039;-57
2022/06/11 08:16:00;;;;;;;7.90;2.22;;;;;;;22.39;55.25;102343.31;5074255;28;20153;-58
2022/06/11 08:18:27;;;;;;;5.90;1.80;;;;;;;22.40;55.32;102354.97;5073780;28;20048;-58
2022/06/11 08:20:54;;;;;;;7.40;2.75;;;;;;;22.41;54.87;102351.25;5075086;28;20044;-57
2022/06/11 08:23:22;;;;;;;5.28;2.35;;;;;;;22.41;55.27;102357.50;5073533;28;20062;-58
2022/06/11 08:25:51;;;;;;;6.72;2.75;;;;;;;22.44;54.98;102364.47;5075367;28;20436;-57
2022/06/11 08:28:18;;;;;;;4.40;2.45;;;;;;;22.44;55.19;102358.22;5075585;28;20109;-57
2022/06/11 08:30:46;;;;;;;6.10;2.80;;;;;;;22.44;54.79;102361.78;5072951;28;20423;-57
2022/06/11 08:33:13;;;;;;;6.00;2.88;;;;;;;22.44;55.01;102369.88;5079040;28;20056;-57
2022/06/11 08:35:40;;;;;;;7.78;3.05;;;;;;;22.45;54.71;102359.91;5075174;28;20090;-57
2022/06/11 08:38:07;;;;;;;8.63;3.35;;;;;;;22.46;54.91;102364.31;5073746;28;20402;-58
2022/06/11 08:40:46;;;;;;;11.15;3.40;;;;;;;22.46;54.56;102354.34;5077635;28;20370;-57
2022/06/11 08:43:30;;;;;;;9.43;3.88;;;;;;;22.47;55.10;102356.06;5073239;28;20046;-57
2022/06/11 08:46:16;;;;;;;7.97;3.58;;;;;;;22.47;55.00;102361.47;5072057;28;20200;-57
2022/06/11 08:49:16;;;;;;;10.35;3.92;;;;;;;22.48;54.70;102359.63;5073584;28;20054;-58
2022/06/11 08:51:55;;;;;;;8.55;3.75;;;;;;;22.49;54.68;102359.47;5074145;28;20056;-58
2022/06/11 08:54:33;;;;;;;7.55;3.53;;;;;;;22.50;54.27;102358.47;5071554;28;20086;-57
2022/06/11 08:57:18;;;;;;;8.95;3.92;;;;;;;22.51;54.80;102360.16;5079290;28;20131;-58
2022/06/11 08:59:57;;;;;;;11.57;4.63;;;;;;;22.54;54.59;102359.03;5073065;28;20179;-57
2022/06/11 09:02:23;;;;;;;16.23;5.15;;;;;;;22.55;54.52;102358.91;5072573;28;20036;-57
2022/06/11 09:05:10;;;;;;;12.65;5.07;;;;;;;22.55;54.13;102360.72;5076367;28;20048;-57
2022/06/11 09:07:51;;;;;;;11.73;5.32;;;;;;;22.56;54.41;102357.06;5077426;28;20056;-58
2022/06/11 09:10:52;;;;;;;13.52;6.05;;;;;;;22.57;54.12;102354.19;5079151;28;20427;-57
2022/06/11 09:13:43;;;;;;;13.35;6.28;;;;;;;22.59;53.86;102349.50;5073545;28;20040;-57
2022/06/11 09:16:35;;;;;;;14.10;6.32;;;;;;;22.61;53.91;102360.16;5074566;28;20205;-57
2022/06/11 09:19:11;;;;;;;14.77;6.13;;;;;;;22.63;53.62;102363.56;5072941;28;20055;-57
2022/06/11 09:22:02;;;;;;;14.40;6.03;;;;;;;22.64;53.97;102358.03;5074018;28;20462;-57
2022/06/11 09:24:50;;;;;;;13.82;6.13;;;;;;;22.66;53.69;102358.72;5075597;28;20082;-57
2022/06/11 09:27:25;;;;;;;13.40;6.28;;;;;;;22.69;53.36;102349.47;5076575;28;20052;-57
2022/06/11 09:30:12;;;;;;;13.30;6.45;;;;;;;22.70;53.28;102355.72;5076084;28;20619;-57
2022/06/11 09:32:52;;;;;;;15.13;6.18;;;;;;;22.73;53.73;102363.53;5073053;28;20339;-57
2022/06/11 09:35:24;;;;;;;16.20;6.70;;;;;;;22.74;53.44;102346.31;5076326;28;20136;-57
2022/06/11 09:37:57;;;;;;;15.48;5.97;;;;;;;22.76;52.91;102358.69;5076061;28;20048;-57
2022/06/11 09:40:49;;;;;;;14.82;6.90;;;;;;;22.78;53.24;102355.81;5077778;28;20044;-57
2022/06/11 09:43:34;;;;;;;16.38;6.35;;;;;;;22.81;52.74;102355.53;5074857;28;20083;-58
2022/06/11 09:46:13;;;;;;;12.10;5.72;;;;;;;22.82;53.17;102366.19;5075266;28;20125;-57
2022/06/11 09:49:14;;;;;;;14.27;6.78;;;;;;;22.85;52.56;102356.94;5072237;28;20144;-57
2022/06/11 09:52:12;;;;;;;13.88;5.88;;;;;;;22.88;52.58;102359.34;5073706;28;20304;-57
2022/06/11 09:54:57;;;;;;;14.10;5.53;;;;;;;22.90;52.61;102362.75;5070489;28;20062;-57
2022/06/11 09:57:48;;;;;;;12.48;6.22;;;;;;;22.91;53.05;102361.78;5074337;28;20127;-57
2022/06/11 10:00:46;;;;;;;10.35;5.07;;;;;;;22.93;53.15;102365.19;5077470;28;20048;-57
2022/06/11 10:03:39;;;;;;;12.30;5.40;;;;;;;22.96;52.43;102372.16;5073970;28;20040;-58
2022/06/11 10:06:14;;;;;;;15.38;6.03;;;;;;;22.97;52.21;102363.91;5073677;28;20135;-58
2022/06/11 10:08:41;;;;;;;10.45;5.20;;;;;;;23.00;52.68;102368.16;5074444;28;20044;-58
2022/06/11 10:11:17;;;;;;;13.02;5.55;;;;;;;23.01;52.51;102367.16;5070313;28;20052;-58
2022/06/11 10:14:28;;;;;;;12.80;5.47;;;;;;;23.03;52.29;102367.84;5078125;28;20044;-58
2022/06/11 10:16:51;;;;;;;11.38;5.18;;;;;;;23.05;52.33;102382.94;5076919;28;20076;-58
2022/06/11 10:19:28;;;;;;;13.85;5.68;;;;;;;23.07;52.20;102377.34;5076065;28;20124;-58
2022/06/11 10:22:01;;;;;;;11.10;5.07;;;;;;;23.09;52.80;102384.34;5075086;28;20039;-58
2022/06/11 10:24:34;;;;;;;12.98;5.57;;;;;;;23.10;52.55;102374.34;5075827;28;20414;-57
2022/06/11 10:27:08;;;;;;;13.48;6.28;;;;;;;23.11;52.15;102374.19;5075015;28;20051;-57
2022/06/11 10:29:51;;;;;;;12.23;5.40;;;;;;;23.11;52.32;102365.25;5074119;28;20047;-57
2022/06/11 10:32:22;;;;;;;14.82;5.65;;;;;;;23.13;52.06;102372.22;5073241;28;20052;-58
2022/06/11 10:35:00;;;;;;;10.57;4.78;;;;;;;23.14;52.32;102373.91;5079644;28;20525;-57
2022/06/11 10:37:34;;;;;;;11.65;5.15;;;;;;;23.16;51.96;102373.78;5075181;28;20125;-58
2022/06/11 10:40:30;;;;;;;12.70;5.30;;;;;;;23.17;52.52;102386.28;5074971;28;20558;-57
2022/06/11 10:43:18;;;;;;;9.65;4.78;;;;;;;23.20;52.13;102382.44;5076806;28;20054;-57
2022/06/11 10:45:47;;;;;;;15.35;5.13;;;;;;;23.20;52.01;102374.31;5075634;28;20063;-57
2022/06/11 10:48:20;;;;;;;12.65;4.80;;;;;;;23.20;51.88;102372.47;5073598;28;20419;-58
2022/06/11 10:50:48;;;;;;;9.35;4.57;;;;;;;23.22;51.87;102377.72;5080245;28;20075;-57
2022/06/11 10:53:35;;;;;;;11.80;4.88;;;;;;;23.20;52.05;102374.31;5074551;28;20128;-57
2022/06/11 10:56:10;;;;;;;10.70;5.03;;;;;;;23.22;51.92;102372.31;5081761;28;20140;-57
2022/06/11 10:59:12;;;;;;;11.25;4.68;;;;;;;23.20;52.29;102369.75;5079021;28;20040;-57
2022/06/11 11:01:43;;;;;;;9.95;4.80;;;;;;;23.23;52.25;102368.59;5064938;28;20040;-58
2022/06/11 11:04:13;;;;;;;13.07;4.80;;;;;;;23.23;52.29;102369.44;5079675;28;20144;-57
2022/06/11 11:06:41;;;;;;;9.20;4.18;;;;;;;23.23;52.01;102363.19;5076857;28;20048;-57
2022/06/11 11:09:19;;;;;;;15.40;4.70;;;;;;;23.23;51.72;102364.03;5075911;28;20234;-58
2022/06/11 11:12:01;;;;;;;12.27;4.95;;;;;;;23.24;51.71;102370.31;5077110;28;20171;-57
2022/06/11 11:14:38;;;;;;;11.80;4.50;;;;;;;23.25;52.35;102363.91;5078351;28;20376;-57
2022/06/11 11:17:26;;;;;;;11.68;4.38;;;;;;;23.25;51.97;102355.78;5080822;28;20203;-57
2022/06/11 11:22:54;;;;;;;17.35;4.90;;;;;;;23.27;51.79;102354.59;5078864;28;20148;-57
2022/06/11 11:25:33;;;;;;;12.63;4.72;;;;;;;23.27;51.66;102353.75;5078533;28;20134;-57
2022/06/11 11:28:00;;;;;;;17.98;4.18;;;;;;;23.28;51.81;102358.19;5077539;28;20388;-57
2022/06/11 11:30:35;;;;;;;12.05;4.28;;;;;;;23.28;51.93;102363.59;5080587;28;20048;-57
2022/06/11 11:33:31;;;;;;;14.70;4.47;;;;;;;23.28;51.23;102366.31;5079232;28;20048;-56
2022/06/11 11:36:10;;;;;;;13.18;3.90;;;;;;;23.29;51.39;102368.00;5078759;28;20136;-57
2022/06/11 11:38:38;;;;;;;15.98;4.45;;;;;;;23.29;51.22;102357.19;5078678;28;20069;-58
2022/06/11 11:41:05;;;;;;;12.88;4.57;;;;;;;23.29;51.38;102368.84;5075173;28;20432;-57
2022/06/11 11:43:40;;;;;;;10.82;3.63;;;;;;;23.30;51.14;102358.88;5078194;28;20050;-56
2022/06/11 11:46:12;;;;;;;10.77;4.38;;;;;;;23.31;51.48;102355.16;5079486;28;20040;-57
2022/06/11 11:48:44;;;;;;;15.75;3.95;;;;;;;23.31;51.65;102357.88;5075648;28;20116;-57
2022/06/11 11:51:19;;;;;;;14.48;5.75;;;;;;;23.32;50.57;102356.88;5075967;28;20048;-57
2022/06/11 11:53:48;;;;;;;23.83;11.18;;;;;;;23.30;50.93;102357.00;5073239;28;20040;-57
2022/06/11 11:56:29;;;;;;;26.60;11.93;;;;;;;23.30;50.42;102367.84;5076111;28;20147;-57